Ilkley, United Kingdom
Current Conditions -  °F | °C
As of 2:50 AM on Saturday 22 Nov 2014 (Local Time) from EGNM Reporting Station
Light Rain Light Rain  
Wind Chill: 39°   Ceiling: Unl
Heat Index: 45°   Visibility: 0.18mi
Dew Point: 45°   Wind: 12mph
Humidity: 100%   Direction: 140°SE
Pressure: 29.8"   Gusts: NA
Location:  53.92°N, 1.82°W
Report Text: EGNM 220250Z 14010KT 100V170 0300 -RA FG VV/// 07/07 Q1009
Loading
Personal Weather Stations






























Interactive Weather Map New forecast layout! Learn more

10-Day Weather Forecast

Advertisements
Track Severe Weather on mobile